sensor_id;sensor_type;location;lat;lon;timestamp;pressure;altitude;pressure_sealevel;temperature;humidity
8320;BME280;4197;42.130;24.746;2023-11-21T00:00:07;99315.25;;;8.39;74.91
8320;BME280;4197;42.130;24.746;2023-11-21T00:02:39;99320.66;;;8.39;75.12
8320;BME280;4197;42.130;24.746;2023-11-21T00:05:10;99329.53;;;8.52;75.14
8320;BME280;4197;42.130;24.746;2023-11-21T00:07:41;99321.63;;;8.59;75.64
8320;BME280;4197;42.130;24.746;2023-11-21T00:10:10;99315.00;;;8.57;75.66
8320;BME280;4197;42.130;24.746;2023-11-21T00:12:41;99321.09;;;8.54;76.20
8320;BME280;4197;42.130;24.746;2023-11-21T00:15:10;99318.81;;;8.56;76.41
8320;BME280;4197;42.130;24.746;2023-11-21T00:17:41;99326.97;;;8.43;76.69
8320;BME280;4197;42.130;24.746;2023-11-21T00:20:11;99327.84;;;8.35;77.85
8320;BME280;4197;42.130;24.746;2023-11-21T00:22:41;99322.44;;;8.23;78.09
8320;BME280;4197;42.130;24.746;2023-11-21T00:25:10;99316.84;;;8.16;78.66
8320;BME280;4197;42.130;24.746;2023-11-21T00:27:38;99318.22;;;8.10;79.49
8320;BME280;4197;42.130;24.746;2023-11-21T00:30:07;99319.22;;;8.05;80.10
8320;BME280;4197;42.130;24.746;2023-11-21T00:32:37;99313.19;;;7.96;80.05
8320;BME280;4197;42.130;24.746;2023-11-21T00:35:06;99313.88;;;7.93;80.86
8320;BME280;4197;42.130;24.746;2023-11-21T00:37:36;99312.16;;;7.88;81.26
8320;BME280;4197;42.130;24.746;2023-11-21T00:40:09;99311.25;;;7.84;81.55
8320;BME280;4197;42.130;24.746;2023-11-21T00:42:38;99309.91;;;7.78;81.87
8320;BME280;4197;42.130;24.746;2023-11-21T00:45:08;99309.81;;;7.74;82.63
8320;BME280;4197;42.130;24.746;2023-11-21T00:47:36;99310.81;;;7.82;82.29
8320;BME280;4197;42.130;24.746;2023-11-21T00:50:06;99314.63;;;7.81;82.25
8320;BME280;4197;42.130;24.746;2023-11-21T00:52:36;99309.91;;;7.78;82.25
8320;BME280;4197;42.130;24.746;2023-11-21T00:55:05;99316.44;;;7.77;82.73
8320;BME280;4197;42.130;24.746;2023-11-21T00:57:34;99314.22;;;7.79;82.35
8320;BME280;4197;42.130;24.746;2023-11-21T01:00:05;99319.59;;;7.79;82.57
8320;BME280;4197;42.130;24.746;2023-11-21T01:02:36;99320.72;;;7.78;83.24
8320;BME280;4197;42.130;24.746;2023-11-21T01:05:05;99319.38;;;7.72;84.21
8320;BME280;4197;42.130;24.746;2023-11-21T01:07:37;99311.84;;;7.65;85.06
8320;BME280;4197;42.130;24.746;2023-11-21T01:10:06;99309.47;;;7.51;86.75
8320;BME280;4197;42.130;24.746;2023-11-21T01:12:36;99314.06;;;7.38;88.20
8320;BME280;4197;42.130;24.746;2023-11-21T01:15:06;99320.81;;;7.32;88.70
8320;BME280;4197;42.130;24.746;2023-11-21T01:17:35;99322.59;;;7.28;90.14
8320;BME280;4197;42.130;24.746;2023-11-21T01:20:06;99325.63;;;7.27;90.83
8320;BME280;4197;42.130;24.746;2023-11-21T01:22:40;99325.06;;;7.21;91.81
8320;BME280;4197;42.130;24.746;2023-11-21T01:25:10;99318.31;;;7.15;93.41
8320;BME280;4197;42.130;24.746;2023-11-21T01:27:38;99309.63;;;7.09;94.55
8320;BME280;4197;42.130;24.746;2023-11-21T01:30:07;99317.28;;;7.07;94.99
8320;BME280;4197;42.130;24.746;2023-11-21T01:32:37;99316.44;;;6.95;95.81
8320;BME280;4197;42.130;24.746;2023-11-21T01:35:06;99314.97;;;6.85;97.74
8320;BME280;4197;42.130;24.746;2023-11-21T01:37:37;99317.84;;;6.80;99.21
8320;BME280;4197;42.130;24.746;2023-11-21T01:40:08;99312.00;;;6.78;100.00
8320;BME280;4197;42.130;24.746;2023-11-21T01:42:41;99311.09;;;6.74;100.00
8320;BME280;4197;42.130;24.746;2023-11-21T01:45:10;99317.13;;;6.70;100.00
8320;BME280;4197;42.130;24.746;2023-11-21T01:47:40;99310.19;;;6.69;100.00
8320;BME280;4197;42.130;24.746;2023-11-21T01:50:13;99307.47;;;6.69;100.00
8320;BME280;4197;42.130;24.746;2023-11-21T01:52:44;99308.94;;;6.67;100.00
8320;BME280;4197;42.130;24.746;2023-11-21T01:55:15;99305.78;;;6.65;100.00
8320;BME280;4197;42.130;24.746;2023-11-21T01:57:54;99309.13;;;6.62;100.00
8320;BME280;4197;42.130;24.746;2023-11-21T02:00:23;99301.38;;;6.60;100.00
8320;BME280;4197;42.130;24.746;2023-11-21T02:02:52;99303.03;;;6.53;100.00
8320;BME280;4197;42.130;24.746;2023-11-21T02:05:21;99304.88;;;6.40;100.00
8320;BME280;4197;42.130;24.746;2023-11-21T02:07:50;99303.00;;;6.40;100.00
8320;BME280;4197;42.130;24.746;2023-11-21T02:10:21;99305.47;;;6.24;100.00
8320;BME280;4197;42.130;24.746;2023-11-21T02:12:51;99301.72;;;6.17;100.00
8320;BME280;4197;42.130;24.746;2023-11-21T02:15:19;99304.34;;;6.05;100.00
8320;BME280;4197;42.130;24.746;2023-11-21T02:17:48;99298.56;;;5.94;100.00
8320;BME280;4197;42.130;24.746;2023-11-21T02:20:19;99299.84;;;5.88;100.00
8320;BME280;4197;42.130;24.746;2023-11-21T02:22:51;99306.19;;;5.83;100.00
8320;BME280;4197;42.130;24.746;2023-11-21T02:25:26;99303.69;;;5.78;100.00
8320;BME280;4197;42.130;24.746;2023-11-21T02:27:56;99310.03;;;5.73;100.00
8320;BME280;4197;42.130;24.746;2023-11-21T02:30:24;99308.47;;;5.72;100.00
8320;BME280;4197;42.130;24.746;2023-11-21T02:32:55;99318.31;;;5.68;100.00
8320;BME280;4197;42.130;24.746;2023-11-21T02:35:24;99316.06;;;5.70;100.00
8320;BME280;4197;42.130;24.746;2023-11-21T02:37:55;99319.75;;;5.66;100.00
8320;BME280;4197;42.130;24.746;2023-11-21T02:40:23;99309.28;;;5.64;100.00
8320;BME280;4197;42.130;24.746;2023-11-21T02:42:54;99305.69;;;5.60;100.00
8320;BME280;4197;42.130;24.746;2023-11-21T02:45:26;99305.22;;;5.58;100.00
8320;BME280;4197;42.130;24.746;2023-11-21T02:47:54;99308.13;;;5.44;100.00
8320;BME280;4197;42.130;24.746;2023-11-21T02:50:24;99312.13;;;5.29;100.00
8320;BME280;4197;42.130;24.746;2023-11-21T02:52:55;99310.41;;;5.25;100.00
8320;BME280;4197;42.130;24.746;2023-11-21T02:55:27;99308.66;;;5.20;100.00
8320;BME280;4197;42.130;24.746;2023-11-21T02:57:56;99315.94;;;5.20;100.00
8320;BME280;4197;42.130;24.746;2023-11-21T03:00:24;99321.63;;;5.18;100.00
8320;BME280;4197;42.130;24.746;2023-11-21T03:02:54;99324.00;;;5.20;100.00
8320;BME280;4197;42.130;24.746;2023-11-21T03:05:24;99325.91;;;5.19;100.00
8320;BME280;4197;42.130;24.746;2023-11-21T03:07:52;99319.75;;;5.19;100.00
8320;BME280;4197;42.130;24.746;2023-11-21T03:10:22;99321.81;;;5.22;100.00
8320;BME280;4197;42.130;24.746;2023-11-21T03:12:51;99321.31;;;5.20;100.00
8320;BME280;4197;42.130;24.746;2023-11-21T03:15:19;99317.38;;;5.17;100.00
8320;BME280;4197;42.130;24.746;2023-11-21T03:17:48;99319.91;;;5.13;100.00
8320;BME280;4197;42.130;24.746;2023-11-21T03:20:17;99318.19;;;5.09;100.00
8320;BME280;4197;42.130;24.746;2023-11-21T03:22:45;99313.94;;;5.08;100.00
8320;BME280;4197;42.130;24.746;2023-11-21T03:25:14;99314.25;;;5.06;100.00
8320;BME280;4197;42.130;24.746;2023-11-21T03:27:45;99324.19;;;5.06;100.00
8320;BME280;4197;42.130;24.746;2023-11-21T03:30:14;99319.13;;;5.04;100.00
8320;BME280;4197;42.130;24.746;2023-11-21T03:32:43;99322.47;;;5.01;100.00
8320;BME280;4197;42.130;24.746;2023-11-21T03:35:12;99329.44;;;5.02;100.00
8320;BME280;4197;42.130;24.746;2023-11-21T03:37:40;99327.38;;;5.08;100.00
8320;BME280;4197;42.130;24.746;2023-11-21T03:40:10;99325.78;;;5.07;100.00
8320;BME280;4197;42.130;24.746;2023-11-21T03:42:40;99317.09;;;5.10;100.00
8320;BME280;4197;42.130;24.746;2023-11-21T03:45:10;99319.13;;;5.13;100.00
8320;BME280;4197;42.130;24.746;2023-11-21T03:47:40;99320.53;;;5.19;100.00
8320;BME280;4197;42.130;24.746;2023-11-21T03:50:09;99321.00;;;5.21;100.00
8320;BME280;4197;42.130;24.746;2023-11-21T03:52:38;99323.84;;;5.25;100.00
8320;BME280;4197;42.130;24.746;2023-11-21T03:55:07;99323.50;;;5.26;100.00
8320;BME280;4197;42.130;24.746;2023-11-21T03:57:35;99326.19;;;5.26;100.00
8320;BME280;4197;42.130;24.746;2023-11-21T04:00:05;99329.22;;;5.25;100.00
8320;BME280;4197;42.130;24.746;2023-11-21T04:02:37;99341.06;;;5.32;100.00
8320;BME280;4197;42.130;24.746;2023-11-21T04:05:06;99340.09;;;5.37;100.00
8320;BME280;4197;42.130;24.746;2023-11-21T04:07:36;99338.66;;;5.40;100.00
8320;BME280;4197;42.130;24.746;2023-11-21T04:10:07;99338.03;;;5.34;100.00
8320;BME280;4197;42.130;24.746;2023-11-21T04:12:36;99330.47;;;5.27;100.00
8320;BME280;4197;42.130;24.746;2023-11-21T04:15:05;99327.00;;;5.18;100.00
8320;BME280;4197;42.130;24.746;2023-11-21T04:17:37;99334.44;;;5.12;100.00
8320;BME280;4197;42.130;24.746;2023-11-21T04:20:07;99331.16;;;5.16;100.00
8320;BME280;4197;42.130;24.746;2023-11-21T04:22:37;99336.53;;;5.16;100.00
8320;BME280;4197;42.130;24.746;2023-11-21T04:25:13;99326.59;;;5.07;100.00
8320;BME280;4197;42.130;24.746;2023-11-21T04:27:42;99332.56;;;5.04;100.00
8320;BME280;4197;42.130;24.746;2023-11-21T04:30:12;99345.38;;;4.99;100.00
8320;BME280;4197;42.130;24.746;2023-11-21T04:32:42;99349.19;;;4.98;100.00
8320;BME280;4197;42.130;24.746;2023-11-21T04:35:10;99342.56;;;4.95;100.00
8320;BME280;4197;42.130;24.746;2023-11-21T04:37:39;99340.03;;;4.90;100.00
8320;BME280;4197;42.130;24.746;2023-11-21T04:40:08;99337.03;;;4.91;100.00
8320;BME280;4197;42.130;24.746;2023-11-21T04:42:37;99342.72;;;4.90;100.00
8320;BME280;4197;42.130;24.746;2023-11-21T04:45:09;99339.25;;;4.89;100.00
8320;BME280;4197;42.130;24.746;2023-11-21T04:47:39;99338.31;;;4.85;100.00
8320;BME280;4197;42.130;24.746;2023-11-21T04:50:10;99343.06;;;4.88;100.00
8320;BME280;4197;42.130;24.746;2023-11-21T04:52:38;99351.25;;;4.92;100.00
8320;BME280;4197;42.130;24.746;2023-11-21T04:55:07;99346.66;;;4.92;100.00
8320;BME280;4197;42.130;24.746;2023-11-21T04:57:37;99342.69;;;4.99;100.00
8320;BME280;4197;42.130;24.746;2023-11-21T05:00:09;99344.78;;;5.02;100.00
8320;BME280;4197;42.130;24.746;2023-11-21T05:02:38;99340.81;;;4.99;100.00
8320;BME280;4197;42.130;24.746;2023-11-21T05:05:09;99332.44;;;5.01;100.00
8320;BME280;4197;42.130;24.746;2023-11-21T05:07:39;99330.88;;;5.00;100.00
8320;BME280;4197;42.130;24.746;2023-11-21T05:10:08;99333.72;;;4.95;100.00
8320;BME280;4197;42.130;24.746;2023-11-21T05:12:42;99343.97;;;4.92;100.00
8320;BME280;4197;42.130;24.746;2023-11-21T05:15:14;99349.34;;;4.92;100.00
8320;BME280;4197;42.130;24.746;2023-11-21T05:17:43;99352.03;;;4.92;100.00
8320;BME280;4197;42.130;24.746;2023-11-21T05:20:14;99346.22;;;4.90;100.00
8320;BME280;4197;42.130;24.746;2023-11-21T05:22:45;99358.06;;;4.89;100.00
8320;BME280;4197;42.130;24.746;2023-11-21T05:25:14;99351.13;;;4.88;100.00
8320;BME280;4197;42.130;24.746;2023-11-21T05:27:42;99353.16;;;4.91;100.00
8320;BME280;4197;42.130;24.746;2023-11-21T05:30:11;99355.84;;;4.91;100.00
8320;BME280;4197;42.130;24.746;2023-11-21T05:32:40;99354.28;;;4.90;100.00
8320;BME280;4197;42.130;24.746;2023-11-21T05:35:10;99349.69;;;4.91;100.00
8320;BME280;4197;42.130;24.746;2023-11-21T05:37:44;99345.09;;;4.91;100.00
8320;BME280;4197;42.130;24.746;2023-11-21T05:40:14;99357.59;;;4.96;100.00
8320;BME280;4197;42.130;24.746;2023-11-21T05:42:44;99355.34;;;4.98;100.00
8320;BME280;4197;42.130;24.746;2023-11-21T05:45:12;99359.16;;;4.97;100.00
8320;BME280;4197;42.130;24.746;2023-11-21T05:47:42;99370.69;;;4.98;100.00
8320;BME280;4197;42.130;24.746;2023-11-21T05:50:14;99365.78;;;5.00;100.00
8320;BME280;4197;42.130;24.746;2023-11-21T05:52:46;99355.66;;;5.05;100.00
8320;BME280;4197;42.130;24.746;2023-11-21T05:55:15;99357.56;;;5.13;100.00
8320;BME280;4197;42.130;24.746;2023-11-21T05:57:44;99356.13;;;5.16;100.00
8320;BME280;4197;42.130;24.746;2023-11-21T06:00:14;99357.06;;;5.20;100.00
8320;BME280;4197;42.130;24.746;2023-11-21T06:02:48;99362.75;;;5.27;100.00
8320;BME280;4197;42.130;24.746;2023-11-21T06:05:22;99365.72;;;5.34;100.00
8320;BME280;4197;42.130;24.746;2023-11-21T06:07:55;99360.34;;;5.43;100.00
8320;BME280;4197;42.130;24.746;2023-11-21T06:10:26;99373.88;;;5.55;100.00
8320;BME280;4197;42.130;24.746;2023-11-21T06:12:55;99375.44;;;5.56;100.00
8320;BME280;4197;42.130;24.746;2023-11-21T06:15:29;99363.25;;;5.59;100.00
8320;BME280;4197;42.130;24.746;2023-11-21T06:17:57;99362.91;;;5.69;100.00
8320;BME280;4197;42.130;24.746;2023-11-21T06:20:27;99361.16;;;5.73;100.00
8320;BME280;4197;42.130;24.746;2023-11-21T06:22:56;99371.06;;;5.81;100.00
8320;BME280;4197;42.130;24.746;2023-11-21T06:25:25;99378.31;;;5.90;100.00
8320;BME280;4197;42.130;24.746;2023-11-21T06:27:53;99377.22;;;5.99;100.00
8320;BME280;4197;42.130;24.746;2023-11-21T06:30:23;99375.13;;;6.05;100.00
8320;BME280;4197;42.130;24.746;2023-11-21T06:32:51;99374.66;;;6.03;100.00
8320;BME280;4197;42.130;24.746;2023-11-21T06:35:20;99368.31;;;6.08;100.00
8320;BME280;4197;42.130;24.746;2023-11-21T06:37:49;99370.22;;;6.07;100.00
8320;BME280;4197;42.130;24.746;2023-11-21T06:40:20;99367.66;;;6.11;100.00
8320;BME280;4197;42.130;24.746;2023-11-21T06:42:49;99365.75;;;6.11;100.00
8320;BME280;4197;42.130;24.746;2023-11-21T06:45:18;99372.38;;;6.14;100.00
8320;BME280;4197;42.130;24.746;2023-11-21T06:47:47;99363.19;;;6.15;100.00
8320;BME280;4197;42.130;24.746;2023-11-21T06:50:16;99362.41;;;6.14;100.00
8320;BME280;4197;42.130;24.746;2023-11-21T06:52:44;99355.31;;;6.10;100.00
8320;BME280;4197;42.130;24.746;2023-11-21T06:55:13;99348.47;;;6.12;100.00
8320;BME280;4197;42.130;24.746;2023-11-21T06:57:44;99359.38;;;6.16;100.00
8320;BME280;4197;42.130;24.746;2023-11-21T07:00:15;99366.47;;;6.20;100.00
8320;BME280;4197;42.130;24.746;2023-11-21T07:02:45;99371.00;;;6.29;100.00
8320;BME280;4197;42.130;24.746;2023-11-21T07:05:15;99370.69;;;6.51;100.00
8320;BME280;4197;42.130;24.746;2023-11-21T07:07:48;99369.72;;;6.56;100.00
8320;BME280;4197;42.130;24.746;2023-11-21T07:10:16;99384.38;;;6.67;100.00
8320;BME280;4197;42.130;24.746;2023-11-21T07:12:46;99383.22;;;6.77;100.00
8320;BME280;4197;42.130;24.746;2023-11-21T07:15:15;99388.16;;;6.87;100.00
8320;BME280;4197;42.130;24.746;2023-11-21T07:17:43;99395.81;;;6.85;100.00
8320;BME280;4197;42.130;24.746;2023-11-21T07:20:11;99390.56;;;6.88;100.00
8320;BME280;4197;42.130;24.746;2023-11-21T07:22:40;99389.88;;;6.91;100.00
8320;BME280;4197;42.130;24.746;2023-11-21T07:25:08;99376.28;;;6.88;100.00
8320;BME280;4197;42.130;24.746;2023-11-21T07:27:37;99374.13;;;6.81;100.00
8320;BME280;4197;42.130;24.746;2023-11-21T07:30:08;99384.38;;;6.67;100.00
8320;BME280;4197;42.130;24.746;2023-11-21T07:32:37;99384.84;;;6.69;100.00
8320;BME280;4197;42.130;24.746;2023-11-21T07:35:08;99372.28;;;6.73;100.00
8320;BME280;4197;42.130;24.746;2023-11-21T07:37:37;99368.78;;;6.73;100.00
8320;BME280;4197;42.130;24.746;2023-11-21T07:40:06;99375.75;;;6.95;100.00
8320;BME280;4197;42.130;24.746;2023-11-21T07:42:36;99379.50;;;7.02;100.00
8320;BME280;4197;42.130;24.746;2023-11-21T07:45:07;99377.25;;;7.04;100.00
8320;BME280;4197;42.130;24.746;2023-11-21T07:47:36;99378.34;;;7.03;100.00
8320;BME280;4197;42.130;24.746;2023-11-21T07:50:07;99384.25;;;7.18;100.00
8320;BME280;4197;42.130;24.746;2023-11-21T07:52:36;99387.97;;;7.25;100.00
8320;BME280;4197;42.130;24.746;2023-11-21T07:55:05;99390.38;;;7.27;100.00
8320;BME280;4197;42.130;24.746;2023-11-21T07:57:34;99385.09;;;7.30;99.87
8320;BME280;4197;42.130;24.746;2023-11-21T08:00:03;99389.03;;;7.33;100.00
8320;BME280;4197;42.130;24.746;2023-11-21T08:02:34;99389.50;;;7.47;99.40
8320;BME280;4197;42.130;24.746;2023-11-21T08:05:03;99381.56;;;7.63;96.14
8320;BME280;4197;42.130;24.746;2023-11-21T08:07:31;99378.50;;;7.65;96.77
8320;BME280;4197;42.130;24.746;2023-11-21T08:10:00;99377.75;;;7.76;95.22
8320;BME280;4197;42.130;24.746;2023-11-21T08:12:28;99377.97;;;7.96;92.93
8320;BME280;4197;42.130;24.746;2023-11-21T08:14:56;99377.31;;;7.99;92.30
8320;BME280;4197;42.130;24.746;2023-11-21T08:17:24;99378.44;;;8.10;91.49
8320;BME280;4197;42.130;24.746;2023-11-21T08:19:54;99379.53;;;8.21;90.31
8320;BME280;4197;42.130;24.746;2023-11-21T08:22:23;99385.50;;;8.27;90.31
8320;BME280;4197;42.130;24.746;2023-11-21T08:24:51;99389.44;;;8.30;91.22
8320;BME280;4197;42.130;24.746;2023-11-21T08:27:23;99381.00;;;8.43;89.68
8320;BME280;4197;42.130;24.746;2023-11-21T08:29:51;99382.09;;;8.55;89.02
8320;BME280;4197;42.130;24.746;2023-11-21T08:32:20;99376.19;;;8.77;87.92
8320;BME280;4197;42.130;24.746;2023-11-21T08:34:48;99378.44;;;8.75;85.79
8320;BME280;4197;42.130;24.746;2023-11-21T08:37:20;99371.56;;;8.78;87.07
8320;BME280;4197;42.130;24.746;2023-11-21T08:39:49;99359.72;;;8.82;87.12
8320;BME280;4197;42.130;24.746;2023-11-21T08:42:17;99364.66;;;8.92;86.72
8320;BME280;4197;42.130;24.746;2023-11-21T08:44:45;99361.66;;;8.98;85.37
8320;BME280;4197;42.130;24.746;2023-11-21T08:47:13;99359.78;;;8.98;84.41
8320;BME280;4197;42.130;24.746;2023-11-21T08:49:42;99357.34;;;9.09;83.66
8320;BME280;4197;42.130;24.746;2023-11-21T08:52:10;99356.25;;;9.42;79.32
8320;BME280;4197;42.130;24.746;2023-11-21T08:54:40;99352.84;;;9.45;79.43
8320;BME280;4197;42.130;24.746;2023-11-21T08:57:10;99344.84;;;9.48;79.49
8320;BME280;4197;42.130;24.746;2023-11-21T08:59:38;99334.09;;;9.52;80.49
8320;BME280;4197;42.130;24.746;2023-11-21T09:02:07;99337.31;;;9.73;78.38
8320;BME280;4197;42.130;24.746;2023-11-21T09:04:36;99328.84;;;9.75;78.59
8320;BME280;4197;42.130;24.746;2023-11-21T09:07:07;99325.06;;;9.95;75.48
8320;BME280;4197;42.130;24.746;2023-11-21T09:09:37;99322.78;;;9.97;74.58
8320;BME280;4197;42.130;24.746;2023-11-21T09:12:07;99322.88;;;9.85;75.59
8320;BME280;4197;42.130;24.746;2023-11-21T09:14:39;99304.84;;;9.73;76.61
8320;BME280;4197;42.130;24.746;2023-11-21T09:17:08;99305.22;;;9.91;78.04
8320;BME280;4197;42.130;24.746;2023-11-21T09:19:38;99305.78;;;10.16;75.82
8320;BME280;4197;42.130;24.746;2023-11-21T09:22:07;99312.34;;;10.31;73.10
8320;BME280;4197;42.130;24.746;2023-11-21T09:24:35;99304.00;;;10.40;73.18
8320;BME280;4197;42.130;24.746;2023-11-21T09:27:07;99296.16;;;10.54;72.33
8320;BME280;4197;42.130;24.746;2023-11-21T09:29:36;99292.94;;;10.68;70.73
8320;BME280;4197;42.130;24.746;2023-11-21T09:32:05;99284.50;;;10.73;70.95
8320;BME280;4197;42.130;24.746;2023-11-21T09:34:35;99290.44;;;10.79;71.39
8320;BME280;4197;42.130;24.746;2023-11-21T09:37:06;99276.25;;;10.89;70.70
8320;BME280;4197;42.130;24.746;2023-11-21T09:39:35;99279.84;;;10.93;71.16
8320;BME280;4197;42.130;24.746;2023-11-21T09:42:10;99278.75;;;10.98;70.12
8320;BME280;4197;42.130;24.746;2023-11-21T09:44:45;99280.13;;;11.11;69.73
8320;BME280;4197;42.130;24.746;2023-11-21T09:47:15;99277.91;;;11.16;68.19
8320;BME280;4197;42.130;24.746;2023-11-21T09:49:47;99275.31;;;11.24;66.78
8320;BME280;4197;42.130;24.746;2023-11-21T09:52:21;99275.13;;;11.36;65.05
8320;BME280;4197;42.130;24.746;2023-11-21T09:54:53;99273.31;;;11.44;65.01
8320;BME280;4197;42.130;24.746;2023-11-21T09:57:25;99265.97;;;11.44;65.86
8320;BME280;4197;42.130;24.746;2023-11-21T09:59:58;99253.25;;;11.48;65.55
8320;BME280;4197;42.130;24.746;2023-11-21T10:02:28;99253.97;;;11.45;66.30
8320;BME280;4197;42.130;24.746;2023-11-21T10:04:58;99245.78;;;11.68;64.14
8320;BME280;4197;42.130;24.746;2023-11-21T10:07:28;99250.59;;;11.78;63.50
8320;BME280;4197;42.130;24.746;2023-11-21T10:10:01;99239.34;;;12.07;62.03
8320;BME280;4197;42.130;24.746;2023-11-21T10:12:32;99225.94;;;12.21;61.33
8320;BME280;4197;42.130;24.746;2023-11-21T10:15:03;99221.19;;;12.14;61.40
8320;BME280;4197;42.130;24.746;2023-11-21T10:17:36;99215.38;;;12.16;60.47
8320;BME280;4197;42.130;24.746;2023-11-21T10:20:10;99218.81;;;12.09;60.76
8320;BME280;4197;42.130;24.746;2023-11-21T10:22:41;99203.72;;;12.15;60.24
8320;BME280;4197;42.130;24.746;2023-11-21T10:25:10;99203.13;;;12.33;60.11
8320;BME280;4197;42.130;24.746;2023-11-21T10:27:42;99211.34;;;12.36;60.31
8320;BME280;4197;42.130;24.746;2023-11-21T10:30:11;99208.47;;;12.56;60.29
8320;BME280;4197;42.130;24.746;2023-11-21T10:32:39;99200.38;;;12.66;59.57
8320;BME280;4197;42.130;24.746;2023-11-21T10:35:08;99207.03;;;12.69;59.29
8320;BME280;4197;42.130;24.746;2023-11-21T10:37:38;99206.63;;;12.67;57.74
8320;BME280;4197;42.130;24.746;2023-11-21T10:40:08;99195.06;;;12.77;57.52
8320;BME280;4197;42.130;24.746;2023-11-21T10:42:39;99195.91;;;12.85;58.11
8320;BME280;4197;42.130;24.746;2023-11-21T10:45:12;99191.75;;;12.98;58.43
8320;BME280;4197;42.130;24.746;2023-11-21T10:47:43;99188.69;;;13.03;58.27
8320;BME280;4197;42.130;24.746;2023-11-21T10:50:11;99191.09;;;13.12;57.82
8320;BME280;4197;42.130;24.746;2023-11-21T10:52:40;99186.44;;;13.16;57.85
8320;BME280;4197;42.130;24.746;2023-11-21T10:55:17;99187.63;;;13.18;57.40
8320;BME280;4197;42.130;24.746;2023-11-21T10:57:49;99177.53;;;13.19;57.88
8320;BME280;4197;42.130;24.746;2023-11-21T11:00:20;99179.03;;;13.13;58.69
8320;BME280;4197;42.130;24.746;2023-11-21T11:02:51;99182.16;;;13.15;58.56
8320;BME280;4197;42.130;24.746;2023-11-21T11:05:21;99172.81;;;13.16;58.79
8320;BME280;4197;42.130;24.746;2023-11-21T11:07:51;99173.31;;;13.25;58.15
8320;BME280;4197;42.130;24.746;2023-11-21T11:10:21;99163.22;;;13.29;58.15
8320;BME280;4197;42.130;24.746;2023-11-21T11:12:53;99165.97;;;13.33;57.38
8320;BME280;4197;42.130;24.746;2023-11-21T11:15:24;99162.13;;;13.37;56.95
8320;BME280;4197;42.130;24.746;2023-11-21T11:17:53;99150.88;;;13.39;56.79
8320;BME280;4197;42.130;24.746;2023-11-21T11:20:29;99139.56;;;13.37;57.11
8320;BME280;4197;42.130;24.746;2023-11-21T11:23:15;99139.56;;;13.41;56.31
8320;BME280;4197;42.130;24.746;2023-11-21T11:25:59;99127.13;;;13.36;55.63
8320;BME280;4197;42.130;24.746;2023-11-21T11:28:38;99127.56;;;13.49;55.49
8320;BME280;4197;42.130;24.746;2023-11-21T11:31:25;99113.97;;;13.52;55.64
8320;BME280;4197;42.130;24.746;2023-11-21T11:33:59;99099.97;;;13.54;56.15
8320;BME280;4197;42.130;24.746;2023-11-21T11:36:36;99080.09;;;13.50;56.49
8320;BME280;4197;42.130;24.746;2023-11-21T11:39:34;99074.66;;;13.50;57.01
8320;BME280;4197;42.130;24.746;2023-11-21T11:42:05;99063.78;;;13.57;56.78
8320;BME280;4197;42.130;24.746;2023-11-21T11:44:50;99051.75;;;13.65;55.97
8320;BME280;4197;42.130;24.746;2023-11-21T11:47:23;99049.81;;;13.69;55.87
8320;BME280;4197;42.130;24.746;2023-11-21T11:50:04;99057.56;;;13.56;56.33
8320;BME280;4197;42.130;24.746;2023-11-21T11:52:36;99046.84;;;13.19;55.92
8320;BME280;4197;42.130;24.746;2023-11-21T11:55:08;99041.13;;;12.76;56.89
8320;BME280;4197;42.130;24.746;2023-11-21T11:57:41;99040.34;;;12.72;58.11
8320;BME280;4197;42.130;24.746;2023-11-21T12:00:14;99044.38;;;12.96;58.18
8320;BME280;4197;42.130;24.746;2023-11-21T12:02:51;99031.88;;;12.84;56.72
8320;BME280;4197;42.130;24.746;2023-11-21T12:05:21;99022.00;;;12.62;57.52
8320;BME280;4197;42.130;24.746;2023-11-21T12:07:51;99032.88;;;12.62;57.15
8320;BME280;4197;42.130;24.746;2023-11-21T12:10:24;99029.22;;;12.43;58.11
8320;BME280;4197;42.130;24.746;2023-11-21T12:12:54;99035.50;;;12.51;58.74
8320;BME280;4197;42.130;24.746;2023-11-21T12:15:23;99035.88;;;12.49;59.02
8320;BME280;4197;42.130;24.746;2023-11-21T12:17:53;99034.84;;;12.65;58.39
8320;BME280;4197;42.130;24.746;2023-11-21T12:20:23;99032.00;;;12.50;58.56
8320;BME280;4197;42.130;24.746;2023-11-21T12:22:52;99029.25;;;12.47;58.84
8320;BME280;4197;42.130;24.746;2023-11-21T12:25:22;99023.03;;;12.46;58.61
8320;BME280;4197;42.130;24.746;2023-11-21T12:27:51;99029.53;;;12.35;59.09
8320;BME280;4197;42.130;24.746;2023-11-21T12:30:21;99045.75;;;12.24;59.49
8320;BME280;4197;42.130;24.746;2023-11-21T12:32:50;99049.34;;;12.35;59.46
8320;BME280;4197;42.130;24.746;2023-11-21T12:35:23;99055.31;;;12.48;59.52
8320;BME280;4197;42.130;24.746;2023-11-21T12:37:53;99050.31;;;12.57;58.96
8320;BME280;4197;42.130;24.746;2023-11-21T12:40:24;99046.84;;;12.60;59.08
8320;BME280;4197;42.130;24.746;2023-11-21T12:42:54;99039.59;;;12.75;59.07
8320;BME280;4197;42.130;24.746;2023-11-21T12:45:23;99040.25;;;12.61;59.34
8320;BME280;4197;42.130;24.746;2023-11-21T12:47:55;99035.59;;;12.62;59.48
8320;BME280;4197;42.130;24.746;2023-11-21T12:50:29;99041.50;;;12.75;58.72
8320;BME280;4197;42.130;24.746;2023-11-21T12:53:00;99029.56;;;12.86;58.85
8320;BME280;4197;42.130;24.746;2023-11-21T12:55:31;99027.97;;;12.82;59.19
8320;BME280;4197;42.130;24.746;2023-11-21T12:58:01;99010.09;;;12.88;58.97
8320;BME280;4197;42.130;24.746;2023-11-21T13:00:37;99007.78;;;12.90;59.54
8320;BME280;4197;42.130;24.746;2023-11-21T13:03:07;99011.28;;;12.90;58.89
8320;BME280;4197;42.130;24.746;2023-11-21T13:05:41;99004.56;;;12.70;58.37
8320;BME280;4197;42.130;24.746;2023-11-21T13:08:14;99010.03;;;12.77;58.48
8320;BME280;4197;42.130;24.746;2023-11-21T13:10:49;99006.94;;;12.75;59.03
8320;BME280;4197;42.130;24.746;2023-11-21T13:13:18;99009.28;;;12.80;58.42
8320;BME280;4197;42.130;24.746;2023-11-21T13:15:51;99001.88;;;12.77;58.76
8320;BME280;4197;42.130;24.746;2023-11-21T13:18:19;99013.31;;;13.01;57.47
8320;BME280;4197;42.130;24.746;2023-11-21T13:20:50;99013.66;;;12.92;57.55
8320;BME280;4197;42.130;24.746;2023-11-21T13:23:23;99010.84;;;12.81;57.61
8320;BME280;4197;42.130;24.746;2023-11-21T13:25:52;99015.47;;;12.77;57.83
8320;BME280;4197;42.130;24.746;2023-11-21T13:28:30;99018.59;;;12.72;57.93